sensor_id;sensor_type;location;lat;lon;timestamp;P1;durP1;ratioP1;P2;durP2;ratioP2
70228;SDS011;57617;51.988;5.854;2022-11-20T00:01:34;20.00;;;8.90;;
70228;SDS011;57617;51.988;5.854;2022-11-20T00:03:59;19.57;;;8.63;;
70228;SDS011;57617;51.988;5.854;2022-11-20T00:06:25;21.37;;;8.63;;
70228;SDS011;57617;51.988;5.854;2022-11-20T00:08:53;19.37;;;8.30;;
70228;SDS011;57617;51.988;5.854;2022-11-20T00:11:21;20.10;;;8.67;;
70228;SDS011;57617;51.988;5.854;2022-11-20T00:13:48;18.03;;;8.03;;
70228;SDS011;57617;51.988;5.854;2022-11-20T00:16:16;19.63;;;8.33;;
70228;SDS011;57617;51.988;5.854;2022-11-20T00:18:43;18.70;;;8.60;;
70228;SDS011;57617;51.988;5.854;2022-11-20T00:21:10;19.13;;;8.60;;
70228;SDS011;57617;51.988;5.854;2022-11-20T00:23:38;20.77;;;8.87;;
70228;SDS011;57617;51.988;5.854;2022-11-20T00:26:03;18.67;;;8.60;;
70228;SDS011;57617;51.988;5.854;2022-11-20T00:28:30;18.13;;;8.30;;
70228;SDS011;57617;51.988;5.854;2022-11-20T00:33:32;17.17;;;7.87;;
70228;SDS011;57617;51.988;5.854;2022-11-20T00:36:01;19.47;;;8.23;;
70228;SDS011;57617;51.988;5.854;2022-11-20T00:38:28;18.70;;;8.90;;
70228;SDS011;57617;51.988;5.854;2022-11-20T00:40:55;21.73;;;8.37;;
70228;SDS011;57617;51.988;5.854;2022-11-20T00:43:21;20.47;;;8.97;;
70228;SDS011;57617;51.988;5.854;2022-11-20T00:45:47;19.07;;;8.07;;
70228;SDS011;57617;51.988;5.854;2022-11-20T00:48:12;18.00;;;8.23;;
70228;SDS011;57617;51.988;5.854;2022-11-20T00:50:37;17.53;;;7.87;;
70228;SDS011;57617;51.988;5.854;2022-11-20T00:53:02;18.53;;;8.27;;
70228;SDS011;57617;51.988;5.854;2022-11-20T00:55:28;18.27;;;8.17;;
70228;SDS011;57617;51.988;5.854;2022-11-20T00:57:53;19.57;;;7.77;;
70228;SDS011;57617;51.988;5.854;2022-11-20T01:00:18;17.43;;;8.27;;
70228;SDS011;57617;51.988;5.854;2022-11-20T01:02:43;17.93;;;7.87;;
70228;SDS011;57617;51.988;5.854;2022-11-20T01:05:08;18.43;;;8.17;;
70228;SDS011;57617;51.988;5.854;2022-11-20T01:07:34;18.00;;;7.80;;
70228;SDS011;57617;51.988;5.854;2022-11-20T01:09:59;18.37;;;8.30;;
70228;SDS011;57617;51.988;5.854;2022-11-20T01:12:24;18.30;;;7.90;;
70228;SDS011;57617;51.988;5.854;2022-11-20T01:14:49;18.80;;;8.50;;
70228;SDS011;57617;51.988;5.854;2022-11-20T01:17:15;21.07;;;8.13;;
70228;SDS011;57617;51.988;5.854;2022-11-20T01:19:40;20.00;;;8.30;;
70228;SDS011;57617;51.988;5.854;2022-11-20T01:22:05;18.00;;;7.97;;
70228;SDS011;57617;51.988;5.854;2022-11-20T01:24:31;18.60;;;8.27;;
70228;SDS011;57617;51.988;5.854;2022-11-20T01:26:56;19.23;;;8.27;;
70228;SDS011;57617;51.988;5.854;2022-11-20T01:29:22;19.53;;;8.30;;
70228;SDS011;57617;51.988;5.854;2022-11-20T01:31:49;18.53;;;7.67;;
70228;SDS011;57617;51.988;5.854;2022-11-20T01:34:18;18.47;;;8.43;;
70228;SDS011;57617;51.988;5.854;2022-11-20T01:36:45;19.87;;;8.43;;
70228;SDS011;57617;51.988;5.854;2022-11-20T01:39:15;19.67;;;8.23;;
70228;SDS011;57617;51.988;5.854;2022-11-20T01:41:42;19.77;;;8.50;;
70228;SDS011;57617;51.988;5.854;2022-11-20T01:49:56;18.43;;;7.93;;
70228;SDS011;57617;51.988;5.854;2022-11-20T01:52:26;16.90;;;8.03;;
70228;SDS011;57617;51.988;5.854;2022-11-20T01:54:59;18.83;;;8.77;;
70228;SDS011;57617;51.988;5.854;2022-11-20T01:57:30;18.90;;;8.63;;
70228;SDS011;57617;51.988;5.854;2022-11-20T01:59:59;19.13;;;8.00;;
70228;SDS011;57617;51.988;5.854;2022-11-20T02:02:36;21.53;;;8.33;;
70228;SDS011;57617;51.988;5.854;2022-11-20T02:05:07;20.00;;;8.63;;
70228;SDS011;57617;51.988;5.854;2022-11-20T02:07:39;16.33;;;7.60;;
70228;SDS011;57617;51.988;5.854;2022-11-20T02:10:05;18.23;;;8.50;;
70228;SDS011;57617;51.988;5.854;2022-11-20T02:12:31;18.43;;;7.73;;
70228;SDS011;57617;51.988;5.854;2022-11-20T02:15:15;21.17;;;8.30;;
70228;SDS011;57617;51.988;5.854;2022-11-20T02:17:40;20.03;;;8.13;;
70228;SDS011;57617;51.988;5.854;2022-11-20T02:20:06;19.33;;;8.30;;
70228;SDS011;57617;51.988;5.854;2022-11-20T02:22:34;17.87;;;8.37;;
70228;SDS011;57617;51.988;5.854;2022-11-20T02:25:07;19.37;;;8.57;;
70228;SDS011;57617;51.988;5.854;2022-11-20T02:27:34;17.60;;;7.67;;
70228;SDS011;57617;51.988;5.854;2022-11-20T02:30:00;18.63;;;7.80;;
70228;SDS011;57617;51.988;5.854;2022-11-20T02:32:33;17.77;;;7.87;;
70228;SDS011;57617;51.988;5.854;2022-11-20T02:35:06;20.87;;;8.53;;
70228;SDS011;57617;51.988;5.854;2022-11-20T02:37:33;16.93;;;7.90;;
70228;SDS011;57617;51.988;5.854;2022-11-20T02:40:01;21.03;;;8.90;;
70228;SDS011;57617;51.988;5.854;2022-11-20T02:42:27;19.20;;;8.77;;
70228;SDS011;57617;51.988;5.854;2022-11-20T02:44:52;16.23;;;7.50;;
70228;SDS011;57617;51.988;5.854;2022-11-20T02:47:18;17.07;;;8.03;;
70228;SDS011;57617;51.988;5.854;2022-11-20T02:49:43;18.90;;;8.57;;
70228;SDS011;57617;51.988;5.854;2022-11-20T02:52:08;18.87;;;8.37;;
70228;SDS011;57617;51.988;5.854;2022-11-20T02:54:34;17.53;;;8.33;;
70228;SDS011;57617;51.988;5.854;2022-11-20T02:56:59;17.17;;;8.53;;
70228;SDS011;57617;51.988;5.854;2022-11-20T02:59:24;18.90;;;8.53;;
70228;SDS011;57617;51.988;5.854;2022-11-20T03:01:49;19.80;;;8.27;;
70228;SDS011;57617;51.988;5.854;2022-11-20T03:04:15;19.97;;;8.77;;
70228;SDS011;57617;51.988;5.854;2022-11-20T03:06:40;22.17;;;8.60;;
70228;SDS011;57617;51.988;5.854;2022-11-20T03:09:05;18.83;;;8.70;;
70228;SDS011;57617;51.988;5.854;2022-11-20T03:11:31;15.90;;;7.77;;
70228;SDS011;57617;51.988;5.854;2022-11-20T03:13:56;20.13;;;8.60;;
70228;SDS011;57617;51.988;5.854;2022-11-20T03:16:22;20.03;;;8.20;;
70228;SDS011;57617;51.988;5.854;2022-11-20T03:18:47;20.53;;;9.27;;
70228;SDS011;57617;51.988;5.854;2022-11-20T03:21:14;20.23;;;9.13;;
70228;SDS011;57617;51.988;5.854;2022-11-20T03:23:40;21.63;;;8.70;;
70228;SDS011;57617;51.988;5.854;2022-11-20T03:28:35;20.43;;;9.23;;
70228;SDS011;57617;51.988;5.854;2022-11-20T03:31:05;19.50;;;8.83;;
70228;SDS011;57617;51.988;5.854;2022-11-20T03:33:38;19.60;;;8.67;;
70228;SDS011;57617;51.988;5.854;2022-11-20T03:36:05;20.80;;;8.80;;
70228;SDS011;57617;51.988;5.854;2022-11-20T03:38:32;20.40;;;9.10;;
70228;SDS011;57617;51.988;5.854;2022-11-20T03:41:02;21.13;;;9.13;;
70228;SDS011;57617;51.988;5.854;2022-11-20T03:43:33;19.80;;;8.93;;
70228;SDS011;57617;51.988;5.854;2022-11-20T03:45:59;19.77;;;8.90;;
70228;SDS011;57617;51.988;5.854;2022-11-20T03:48:24;22.13;;;9.40;;
70228;SDS011;57617;51.988;5.854;2022-11-20T03:50:50;22.03;;;9.63;;
70228;SDS011;57617;51.988;5.854;2022-11-20T03:53:16;20.10;;;9.13;;
70228;SDS011;57617;51.988;5.854;2022-11-20T03:55:42;19.53;;;8.63;;
70228;SDS011;57617;51.988;5.854;2022-11-20T03:58:07;23.33;;;10.50;;
70228;SDS011;57617;51.988;5.854;2022-11-20T04:00:33;20.70;;;9.50;;
70228;SDS011;57617;51.988;5.854;2022-11-20T04:02:59;23.03;;;10.40;;
70228;SDS011;57617;51.988;5.854;2022-11-20T04:05:25;23.80;;;10.00;;
70228;SDS011;57617;51.988;5.854;2022-11-20T04:07:50;20.97;;;9.67;;
70228;SDS011;57617;51.988;5.854;2022-11-20T04:10:16;22.37;;;9.70;;
70228;SDS011;57617;51.988;5.854;2022-11-20T04:12:41;25.27;;;9.40;;
70228;SDS011;57617;51.988;5.854;2022-11-20T04:15:06;20.40;;;9.60;;
70228;SDS011;57617;51.988;5.854;2022-11-20T04:17:32;20.97;;;10.17;;
70228;SDS011;57617;51.988;5.854;2022-11-20T04:19:57;25.10;;;10.50;;
70228;SDS011;57617;51.988;5.854;2022-11-20T04:22:22;21.13;;;9.90;;
70228;SDS011;57617;51.988;5.854;2022-11-20T04:24:47;23.10;;;10.17;;
70228;SDS011;57617;51.988;5.854;2022-11-20T04:27:13;23.60;;;10.70;;
70228;SDS011;57617;51.988;5.854;2022-11-20T04:29:38;25.27;;;9.93;;
70228;SDS011;57617;51.988;5.854;2022-11-20T04:32:03;20.83;;;9.80;;
70228;SDS011;57617;51.988;5.854;2022-11-20T04:34:28;23.07;;;9.87;;
70228;SDS011;57617;51.988;5.854;2022-11-20T04:36:54;22.63;;;10.07;;
70228;SDS011;57617;51.988;5.854;2022-11-20T04:39:19;21.90;;;9.87;;
70228;SDS011;57617;51.988;5.854;2022-11-20T04:41:44;23.63;;;10.47;;
70228;SDS011;57617;51.988;5.854;2022-11-20T04:44:10;23.47;;;10.53;;
70228;SDS011;57617;51.988;5.854;2022-11-20T04:46:36;24.70;;;10.10;;
70228;SDS011;57617;51.988;5.854;2022-11-20T04:49:04;25.93;;;10.33;;
70228;SDS011;57617;51.988;5.854;2022-11-20T04:51:29;22.43;;;10.37;;
70228;SDS011;57617;51.988;5.854;2022-11-20T04:53:55;23.57;;;10.00;;
70228;SDS011;57617;51.988;5.854;2022-11-20T04:56:20;22.50;;;9.73;;
70228;SDS011;57617;51.988;5.854;2022-11-20T04:58:46;23.83;;;10.47;;
70228;SDS011;57617;51.988;5.854;2022-11-20T05:01:12;26.77;;;10.97;;
70228;SDS011;57617;51.988;5.854;2022-11-20T05:03:41;23.77;;;10.30;;
70228;SDS011;57617;51.988;5.854;2022-11-20T05:06:08;25.17;;;10.53;;
70228;SDS011;57617;51.988;5.854;2022-11-20T05:08:34;24.03;;;10.50;;
70228;SDS011;57617;51.988;5.854;2022-11-20T05:11:04;24.97;;;10.47;;
70228;SDS011;57617;51.988;5.854;2022-11-20T05:13:31;23.10;;;10.37;;
70228;SDS011;57617;51.988;5.854;2022-11-20T05:16:03;25.10;;;10.57;;
70228;SDS011;57617;51.988;5.854;2022-11-20T05:18:33;27.43;;;10.90;;
70228;SDS011;57617;51.988;5.854;2022-11-20T05:20:59;24.70;;;10.93;;
70228;SDS011;57617;51.988;5.854;2022-11-20T05:23:24;27.70;;;10.70;;
70228;SDS011;57617;51.988;5.854;2022-11-20T05:25:54;27.20;;;11.20;;
70228;SDS011;57617;51.988;5.854;2022-11-20T05:28:20;25.90;;;11.17;;
70228;SDS011;57617;51.988;5.854;2022-11-20T05:30:46;25.40;;;11.03;;
70228;SDS011;57617;51.988;5.854;2022-11-20T05:33:12;25.97;;;11.50;;
70228;SDS011;57617;51.988;5.854;2022-11-20T05:35:37;27.10;;;11.40;;
70228;SDS011;57617;51.988;5.854;2022-11-20T05:38:03;27.27;;;11.57;;
70228;SDS011;57617;51.988;5.854;2022-11-20T05:40:28;28.40;;;11.30;;
70228;SDS011;57617;51.988;5.854;2022-11-20T05:42:53;24.80;;;10.47;;
70228;SDS011;57617;51.988;5.854;2022-11-20T05:45:18;26.23;;;11.50;;
70228;SDS011;57617;51.988;5.854;2022-11-20T05:47:44;23.33;;;10.77;;
70228;SDS011;57617;51.988;5.854;2022-11-20T05:50:09;27.60;;;11.60;;
70228;SDS011;57617;51.988;5.854;2022-11-20T05:52:34;25.40;;;10.70;;
70228;SDS011;57617;51.988;5.854;2022-11-20T05:54:59;24.37;;;10.03;;
70228;SDS011;57617;51.988;5.854;2022-11-20T05:57:25;22.03;;;10.63;;
70228;SDS011;57617;51.988;5.854;2022-11-20T05:59:50;23.53;;;11.13;;
70228;SDS011;57617;51.988;5.854;2022-11-20T06:02:15;28.57;;;10.60;;
70228;SDS011;57617;51.988;5.854;2022-11-20T06:04:41;26.97;;;11.57;;
70228;SDS011;57617;51.988;5.854;2022-11-20T06:07:06;23.83;;;10.83;;
70228;SDS011;57617;51.988;5.854;2022-11-20T06:09:31;25.03;;;10.60;;
70228;SDS011;57617;51.988;5.854;2022-11-20T06:11:57;24.37;;;10.97;;
70228;SDS011;57617;51.988;5.854;2022-11-20T06:14:22;24.87;;;10.87;;
70228;SDS011;57617;51.988;5.854;2022-11-20T06:16:47;25.10;;;11.60;;
70228;SDS011;57617;51.988;5.854;2022-11-20T06:19:13;26.10;;;11.53;;
70228;SDS011;57617;51.988;5.854;2022-11-20T06:21:38;26.23;;;11.37;;
70228;SDS011;57617;51.988;5.854;2022-11-20T06:24:04;25.67;;;11.53;;
70228;SDS011;57617;51.988;5.854;2022-11-20T06:26:30;26.83;;;11.40;;
70228;SDS011;57617;51.988;5.854;2022-11-20T06:28:55;26.57;;;11.90;;
70228;SDS011;57617;51.988;5.854;2022-11-20T06:31:21;25.43;;;11.87;;
70228;SDS011;57617;51.988;5.854;2022-11-20T06:33:48;24.07;;;11.10;;
70228;SDS011;57617;51.988;5.854;2022-11-20T06:36:14;28.90;;;11.87;;
70228;SDS011;57617;51.988;5.854;2022-11-20T06:38:40;26.03;;;12.13;;
70228;SDS011;57617;51.988;5.854;2022-11-20T06:41:07;24.80;;;11.50;;
70228;SDS011;57617;51.988;5.854;2022-11-20T06:43:36;26.40;;;10.90;;
70228;SDS011;57617;51.988;5.854;2022-11-20T06:46:01;27.67;;;12.13;;
70228;SDS011;57617;51.988;5.854;2022-11-20T06:48:27;30.67;;;12.20;;
70228;SDS011;57617;51.988;5.854;2022-11-20T06:50:53;27.90;;;12.47;;
70228;SDS011;57617;51.988;5.854;2022-11-20T06:53:19;30.47;;;13.27;;
70228;SDS011;57617;51.988;5.854;2022-11-20T06:55:44;29.63;;;12.40;;
70228;SDS011;57617;51.988;5.854;2022-11-20T06:58:11;31.10;;;14.33;;
70228;SDS011;57617;51.988;5.854;2022-11-20T07:00:40;30.40;;;13.73;;
70228;SDS011;57617;51.988;5.854;2022-11-20T07:03:06;30.93;;;13.97;;
70228;SDS011;57617;51.988;5.854;2022-11-20T07:05:33;29.83;;;12.27;;
70228;SDS011;57617;51.988;5.854;2022-11-20T07:07:59;29.50;;;12.67;;
70228;SDS011;57617;51.988;5.854;2022-11-20T07:10:24;28.53;;;13.47;;
70228;SDS011;57617;51.988;5.854;2022-11-20T07:12:53;29.53;;;12.97;;
70228;SDS011;57617;51.988;5.854;2022-11-20T07:15:20;33.10;;;13.33;;
70228;SDS011;57617;51.988;5.854;2022-11-20T07:17:47;29.33;;;12.67;;
70228;SDS011;57617;51.988;5.854;2022-11-20T07:20:12;29.30;;;12.27;;
70228;SDS011;57617;51.988;5.854;2022-11-20T07:22:38;29.83;;;11.97;;
70228;SDS011;57617;51.988;5.854;2022-11-20T07:25:04;24.37;;;11.67;;
70228;SDS011;57617;51.988;5.854;2022-11-20T07:27:29;26.10;;;11.70;;
70228;SDS011;57617;51.988;5.854;2022-11-20T07:29:55;30.97;;;12.67;;
70228;SDS011;57617;51.988;5.854;2022-11-20T07:32:20;29.40;;;12.90;;
70228;SDS011;57617;51.988;5.854;2022-11-20T07:34:45;26.67;;;12.47;;
70228;SDS011;57617;51.988;5.854;2022-11-20T07:37:11;28.27;;;12.60;;
70228;SDS011;57617;51.988;5.854;2022-11-20T07:39:36;28.77;;;12.50;;
70228;SDS011;57617;51.988;5.854;2022-11-20T07:42:02;27.27;;;12.00;;
70228;SDS011;57617;51.988;5.854;2022-11-20T07:44:27;29.50;;;12.20;;
70228;SDS011;57617;51.988;5.854;2022-11-20T07:46:52;29.47;;;12.77;;
70228;SDS011;57617;51.988;5.854;2022-11-20T07:49:18;28.43;;;12.60;;
70228;SDS011;57617;51.988;5.854;2022-11-20T07:51:43;25.80;;;11.67;;
70228;SDS011;57617;51.988;5.854;2022-11-20T07:54:08;27.23;;;12.43;;
70228;SDS011;57617;51.988;5.854;2022-11-20T07:56:33;29.93;;;12.87;;
70228;SDS011;57617;51.988;5.854;2022-11-20T07:58:59;26.90;;;12.63;;
70228;SDS011;57617;51.988;5.854;2022-11-20T08:01:24;29.17;;;13.10;;
70228;SDS011;57617;51.988;5.854;2022-11-20T08:03:49;26.97;;;12.43;;
70228;SDS011;57617;51.988;5.854;2022-11-20T08:06:15;31.60;;;13.70;;
70228;SDS011;57617;51.988;5.854;2022-11-20T08:08:40;29.57;;;13.57;;
70228;SDS011;57617;51.988;5.854;2022-11-20T08:11:06;32.03;;;14.40;;
70228;SDS011;57617;51.988;5.854;2022-11-20T08:13:50;32.10;;;13.80;;
70228;SDS011;57617;51.988;5.854;2022-11-20T08:16:34;31.93;;;14.10;;
70228;SDS011;57617;51.988;5.854;2022-11-20T08:18:59;33.23;;;13.73;;
70228;SDS011;57617;51.988;5.854;2022-11-20T08:21:24;32.47;;;14.83;;
70228;SDS011;57617;51.988;5.854;2022-11-20T08:23:50;31.90;;;14.40;;
70228;SDS011;57617;51.988;5.854;2022-11-20T08:26:15;31.10;;;14.73;;
70228;SDS011;57617;51.988;5.854;2022-11-20T08:28:40;33.00;;;14.63;;
70228;SDS011;57617;51.988;5.854;2022-11-20T08:31:06;34.40;;;15.07;;
70228;SDS011;57617;51.988;5.854;2022-11-20T08:33:31;35.23;;;15.43;;
70228;SDS011;57617;51.988;5.854;2022-11-20T08:36:06;31.27;;;14.93;;
70228;SDS011;57617;51.988;5.854;2022-11-20T08:38:32;31.07;;;14.67;;
70228;SDS011;57617;51.988;5.854;2022-11-20T08:41:01;33.47;;;15.20;;
70228;SDS011;57617;51.988;5.854;2022-11-20T08:43:46;34.07;;;14.70;;
70228;SDS011;57617;51.988;5.854;2022-11-20T08:46:12;32.90;;;15.10;;
70228;SDS011;57617;51.988;5.854;2022-11-20T08:48:37;32.27;;;15.10;;
70228;SDS011;57617;51.988;5.854;2022-11-20T08:51:03;34.77;;;14.97;;
70228;SDS011;57617;51.988;5.854;2022-11-20T08:53:28;32.63;;;15.73;;
70228;SDS011;57617;51.988;5.854;2022-11-20T08:55:53;42.33;;;17.80;;
70228;SDS011;57617;51.988;5.854;2022-11-20T08:58:19;39.20;;;16.93;;
70228;SDS011;57617;51.988;5.854;2022-11-20T09:00:44;35.30;;;16.20;;
70228;SDS011;57617;51.988;5.854;2022-11-20T09:03:10;33.80;;;16.30;;
70228;SDS011;57617;51.988;5.854;2022-11-20T09:05:35;37.53;;;16.40;;
70228;SDS011;57617;51.988;5.854;2022-11-20T09:08:00;34.70;;;15.77;;
70228;SDS011;57617;51.988;5.854;2022-11-20T09:10:26;33.20;;;15.73;;
70228;SDS011;57617;51.988;5.854;2022-11-20T09:12:52;32.97;;;15.67;;
70228;SDS011;57617;51.988;5.854;2022-11-20T09:15:19;51.27;;;16.13;;
70228;SDS011;57617;51.988;5.854;2022-11-20T09:17:52;38.30;;;16.87;;
70228;SDS011;57617;51.988;5.854;2022-11-20T09:20:21;36.03;;;16.43;;
70228;SDS011;57617;51.988;5.854;2022-11-20T09:22:47;38.97;;;16.33;;
70228;SDS011;57617;51.988;5.854;2022-11-20T09:25:13;37.63;;;16.53;;
70228;SDS011;57617;51.988;5.854;2022-11-20T09:27:38;37.23;;;17.60;;
70228;SDS011;57617;51.988;5.854;2022-11-20T09:30:04;36.30;;;17.23;;
70228;SDS011;57617;51.988;5.854;2022-11-20T09:32:29;36.87;;;17.20;;
70228;SDS011;57617;51.988;5.854;2022-11-20T09:34:55;36.77;;;16.83;;
70228;SDS011;57617;51.988;5.854;2022-11-20T09:37:20;37.70;;;17.57;;
70228;SDS011;57617;51.988;5.854;2022-11-20T09:39:46;38.40;;;18.17;;
70228;SDS011;57617;51.988;5.854;2022-11-20T09:45:10;39.50;;;18.17;;
70228;SDS011;57617;51.988;5.854;2022-11-20T09:56:07;43.30;;;19.17;;
70228;SDS011;57617;51.988;5.854;2022-11-20T10:01:14;43.43;;;19.20;;
70228;SDS011;57617;51.988;5.854;2022-11-20T10:03:44;43.33;;;19.30;;
70228;SDS011;57617;51.988;5.854;2022-11-20T10:06:17;39.97;;;18.10;;
70228;SDS011;57617;51.988;5.854;2022-11-20T10:08:54;40.93;;;18.83;;
70228;SDS011;57617;51.988;5.854;2022-11-20T10:14:16;38.70;;;17.33;;
70228;SDS011;57617;51.988;5.854;2022-11-20T10:25:15;39.43;;;17.60;;
70228;SDS011;57617;51.988;5.854;2022-11-20T10:30:43;40.53;;;18.33;;
70228;SDS011;57617;51.988;5.854;2022-11-20T10:33:16;40.07;;;18.47;;
70228;SDS011;57617;51.988;5.854;2022-11-20T10:35:45;45.97;;;20.13;;
70228;SDS011;57617;51.988;5.854;2022-11-20T10:38:15;41.60;;;18.97;;
70228;SDS011;57617;51.988;5.854;2022-11-20T10:40:48;43.17;;;18.73;;
70228;SDS011;57617;51.988;5.854;2022-11-20T10:43:19;42.17;;;19.13;;
70228;SDS011;57617;51.988;5.854;2022-11-20T10:48:19;47.30;;;20.20;;
70228;SDS011;57617;51.988;5.854;2022-11-20T10:51:02;43.33;;;19.63;;
70228;SDS011;57617;51.988;5.854;2022-11-20T10:53:58;41.53;;;19.30;;
70228;SDS011;57617;51.988;5.854;2022-11-20T11:02:01;40.73;;;18.27;;
70228;SDS011;57617;51.988;5.854;2022-11-20T11:04:30;44.20;;;22.20;;
70228;SDS011;57617;51.988;5.854;2022-11-20T11:07:08;45.97;;;22.13;;
70228;SDS011;57617;51.988;5.854;2022-11-20T11:09:47;42.60;;;19.67;;
70228;SDS011;57617;51.988;5.854;2022-11-20T11:12:18;41.27;;;18.57;;
70228;SDS011;57617;51.988;5.854;2022-11-20T11:14:48;43.20;;;19.87;;
70228;SDS011;57617;51.988;5.854;2022-11-20T11:17:22;39.33;;;18.20;;
70228;SDS011;57617;51.988;5.854;2022-11-20T11:22:32;45.37;;;20.07;;
70228;SDS011;57617;51.988;5.854;2022-11-20T11:24:59;48.07;;;20.83;;
70228;SDS011;57617;51.988;5.854;2022-11-20T11:27:25;45.53;;;20.17;;
70228;SDS011;57617;51.988;5.854;2022-11-20T11:29:50;43.53;;;19.87;;
70228;SDS011;57617;51.988;5.854;2022-11-20T11:32:27;39.20;;;18.23;;
70228;SDS011;57617;51.988;5.854;2022-11-20T11:34:59;42.97;;;18.17;;
70228;SDS011;57617;51.988;5.854;2022-11-20T11:37:25;42.93;;;19.90;;
70228;SDS011;57617;51.988;5.854;2022-11-20T11:40:02;42.37;;;19.20;;
70228;SDS011;57617;51.988;5.854;2022-11-20T11:42:29;42.90;;;19.93;;
70228;SDS011;57617;51.988;5.854;2022-11-20T11:44:55;43.43;;;19.50;;
70228;SDS011;57617;51.988;5.854;2022-11-20T11:47:33;45.47;;;19.23;;
70228;SDS011;57617;51.988;5.854;2022-11-20T11:52:40;39.50;;;17.70;;
70228;SDS011;57617;51.988;5.854;2022-11-20T11:55:14;41.03;;;18.03;;
70228;SDS011;57617;51.988;5.854;2022-11-20T12:00:15;42.93;;;20.03;;
70228;SDS011;57617;51.988;5.854;2022-11-20T12:05:27;44.20;;;20.20;;
70228;SDS011;57617;51.988;5.854;2022-11-20T12:08:10;57.73;;;23.33;;
70228;SDS011;57617;51.988;5.854;2022-11-20T12:13:24;47.33;;;22.63;;
70228;SDS011;57617;51.988;5.854;2022-11-20T12:15:51;55.60;;;25.17;;
70228;SDS011;57617;51.988;5.854;2022-11-20T12:18:20;60.37;;;25.53;;
70228;SDS011;57617;51.988;5.854;2022-11-20T12:32:22;47.20;;;21.13;;
70228;SDS011;57617;51.988;5.854;2022-11-20T12:35:01;46.93;;;22.03;;
70228;SDS011;57617;51.988;5.854;2022-11-20T12:38:06;49.83;;;23.27;;
70228;SDS011;57617;51.988;5.854;2022-11-20T12:43:25;49.27;;;22.77;;
70228;SDS011;57617;51.988;5.854;2022-11-20T12:46:33;51.30;;;24.17;;
70228;SDS011;57617;51.988;5.854;2022-11-20T12:49:42;53.13;;;25.67;;
70228;SDS011;57617;51.988;5.854;2022-11-20T12:55:20;54.23;;;25.00;;
70228;SDS011;57617;51.988;5.854;2022-11-20T12:57:53;54.90;;;25.17;;
70228;SDS011;57617;51.988;5.854;2022-11-20T13:00:23;49.27;;;23.43;;
70228;SDS011;57617;51.988;5.854;2022-11-20T13:05:55;47.20;;;23.53;;
70228;SDS011;57617;51.988;5.854;2022-11-20T13:08:53;56.17;;;24.30;;
70228;SDS011;57617;51.988;5.854;2022-11-20T13:11:24;55.00;;;24.93;;
70228;SDS011;57617;51.988;5.854;2022-11-20T13:14:16;50.50;;;24.33;;
70228;SDS011;57617;51.988;5.854;2022-11-20T13:19:48;52.57;;;24.50;;
70228;SDS011;57617;51.988;5.854;2022-11-20T13:22:24;51.00;;;23.83;;
70228;SDS011;57617;51.988;5.854;2022-11-20T13:24:53;58.17;;;25.03;;
70228;SDS011;57617;51.988;5.854;2022-11-20T13:27:20;53.83;;;25.43;;
70228;SDS011;57617;51.988;5.854;2022-11-20T13:32:55;59.13;;;25.57;;
70228;SDS011;57617;51.988;5.854;2022-11-20T13:35:34;55.30;;;25.17;;
70228;SDS011;57617;51.988;5.854;2022-11-20T13:38:00;58.47;;;25.83;;
70228;SDS011;57617;51.988;5.854;2022-11-20T13:40:30;65.77;;;26.17;;
70228;SDS011;57617;51.988;5.854;2022-11-20T13:45:28;64.37;;;26.60;;
70228;SDS011;57617;51.988;5.854;2022-11-20T13:47:56;59.80;;;25.87;;
70228;SDS011;57617;51.988;5.854;2022-11-20T13:50:39;64.47;;;26.90;;
70228;SDS011;57617;51.988;5.854;2022-11-20T13:53:23;55.43;;;25.17;;
70228;SDS011;57617;51.988;5.854;2022-11-20T13:56:21;67.93;;;27.13;;
70228;SDS011;57617;51.988;5.854;2022-11-20T13:58:59;74.83;;;29.70;;
70228;SDS011;57617;51.988;5.854;2022-11-20T14:01:35;69.97;;;28.57;;
70228;SDS011;57617;51.988;5.854;2022-11-20T14:04:08;66.43;;;28.13;;
70228;SDS011;57617;51.988;5.854;2022-11-20T14:06:38;76.27;;;29.97;;
70228;SDS011;57617;51.988;5.854;2022-11-20T14:09:24;66.63;;;28.07;;
70228;SDS011;57617;51.988;5.854;2022-11-20T14:11:55;68.63;;;27.20;;
70228;SDS011;57617;51.988;5.854;2022-11-20T14:14:25;69.87;;;27.97;;
70228;SDS011;57617;51.988;5.854;2022-11-20T14:16:52;70.93;;;28.67;;
70228;SDS011;57617;51.988;5.854;2022-11-20T14:19:29;74.30;;;28.77;;
70228;SDS011;57617;51.988;5.854;2022-11-20T14:27:32;71.00;;;29.07;;
70228;SDS011;57617;51.988;5.854;2022-11-20T14:30:02;72.03;;;29.67;;
70228;SDS011;57617;51.988;5.854;2022-11-20T14:32:29;76.07;;;29.10;;
70228;SDS011;57617;51.988;5.854;2022-11-20T14:34:56;79.73;;;31.13;;
70228;SDS011;57617;51.988;5.854;2022-11-20T14:37:27;84.93;;;30.77;;
70228;SDS011;57617;51.988;5.854;2022-11-20T14:39:58;84.83;;;32.63;;
70228;SDS011;57617;51.988;5.854;2022-11-20T14:42:27;73.30;;;30.57;;
70228;SDS011;57617;51.988;5.854;2022-11-20T14:44:57;79.37;;;29.97;;
70228;SDS011;57617;51.988;5.854;2022-11-20T14:47:29;72.23;;;29.20;;
70228;SDS011;57617;51.988;5.854;2022-11-20T14:49:55;75.70;;;29.07;;
70228;SDS011;57617;51.988;5.854;2022-11-20T14:52:23;83.73;;;30.13;;
70228;SDS011;57617;51.988;5.854;2022-11-20T14:54:56;69.57;;;27.90;;
70228;SDS011;57617;51.988;5.854;2022-11-20T14:57:32;74.40;;;29.50;;
70228;SDS011;57617;51.988;5.854;2022-11-20T15:02:30;80.83;;;30.07;;
70228;SDS011;57617;51.988;5.854;2022-11-20T15:04:59;81.10;;;30.53;;
70228;SDS011;57617;51.988;5.854;2022-11-20T15:10:05;77.53;;;29.00;;
70228;SDS011;57617;51.988;5.854;2022-11-20T15:12:37;77.27;;;30.40;;
70228;SDS011;57617;51.988;5.854;2022-11-20T15:15:12;82.33;;;30.00;;
70228;SDS011;57617;51.988;5.854;2022-11-20T15:17:44;82.80;;;31.07;;
70228;SDS011;57617;51.988;5.854;2022-11-20T15:20:13;76.77;;;30.33;;
70228;SDS011;57617;51.988;5.854;2022-11-20T15:22:40;84.50;;;29.90;;
70228;SDS011;57617;51.988;5.854;2022-11-20T15:25:15;80.77;;;30.97;;
70228;SDS011;57617;51.988;5.854;2022-11-20T15:27:42;86.90;;;30.27;;
70228;SDS011;57617;51.988;5.854;2022-11-20T15:30:11;84.40;;;31.03;;
70228;SDS011;57617;51.988;5.854;2022-11-20T15:32:42;87.83;;;32.27;;
70228;SDS011;57617;51.988;5.854;2022-11-20T15:35:07;95.53;;;32.10;;
70228;SDS011;57617;51.988;5.854;2022-11-20T15:37:33;97.77;;;31.53;;
70228;SDS011;57617;51.988;5.854;2022-11-20T15:39:59;100.27;;;32.57;;
70228;SDS011;57617;51.988;5.854;2022-11-20T15:42:24;119.53;;;42.35;;
70228;SDS011;57617;51.988;5.854;2022-11-20T15:44:49;97.55;;;34.10;;
70228;SDS011;57617;51.988;5.854;2022-11-20T15:47:14;92.17;;;32.20;;
70228;SDS011;57617;51.988;5.854;2022-11-20T15:49:42;87.40;;;32.10;;
70228;SDS011;57617;51.988;5.854;2022-11-20T15:52:08;88.87;;;32.70;;
70228;SDS011;57617;51.988;5.854;2022-11-20T15:54:34;92.83;;;32.50;;
70228;SDS011;57617;51.988;5.854;2022-11-20T15:57:00;89.97;;;30.73;;
70228;SDS011;57617;51.988;5.854;2022-11-20T15:59:25;86.90;;;31.43;;
70228;SDS011;57617;51.988;5.854;2022-11-20T16:01:51;94.93;;;30.77;;
70228;SDS011;57617;51.988;5.854;2022-11-20T16:04:16;100.90;;;30.70;;
70228;SDS011;57617;51.988;5.854;2022-11-20T16:06:43;103.63;;;31.97;;
70228;SDS011;57617;51.988;5.854;2022-11-20T16:09:08;101.43;;;32.60;;
70228;SDS011;57617;51.988;5.854;2022-11-20T16:11:34;110.37;;;33.83;;
70228;SDS011;57617;51.988;5.854;2022-11-20T16:14:05;90.57;;;31.70;;